CYJT

Stephenville Airport

Stephenville, Canada
TAF CYJT 181738Z 1818/1918 20015G25KT 6SM -SHRA BR OVC025 TEMPO 1818/1901 5SM -SHRA BR OVC020 FM190100 22010KT 1/2SM -SHRA FG VV002 TEMPO 1901/1905 6SM BR FEW002 FM190500 22010KT 6SM BR FEW002 PROB30 1905/1907 1/2SM FG VV002 FM190700 24005KT P6SM SKC BECMG 1913/1915 26010KT RMK NXT FCST BY 190000Z
Issued Valid From Valid To
Jul-18 @ 17:38 UTC
(5 hours ago)
Jul-18 @ 18:00 UTC
(5 hours ago)
Jul-19 @ 18:00 UTC
(in 19 hours)
Jul-18 @ 18:00 to Jul-19 @ 01:00
TAF CYJT 181738Z 1818/1918 20015G25KT 6SM -SHRA BR OVC025
Wind Visibility Clouds Conditions
200° at 15 knots
 Gusting to 25 knots
6 miles
  • Overcast at 2,500' AGL
  • Light Rain
  • Mist
Temporary Jul-18 @ 18:00 to Jul-19 @ 01:00
TEMPO 1818/1901 5SM -SHRA BR OVC020
Visibility Clouds Conditions
5 miles
  • Overcast at 2,000' AGL
  • Light Rain
  • Mist
Temporary Jul-19 @ 01:00 to Jul-19 @ 05:00
TEMPO 1901/1905 6SM BR FEW002
Visibility Clouds Conditions
6 miles
  • Few at 200' AGL
  • Mist
From Jul-19 @ 01:00 to Jul-19 @ 05:00
FM190100 22010KT 1/2SM -SHRA FG VV002
Wind Visibility Clouds Conditions
220° at 10 knots 1/2 miles
  • Vertical visibility at 200' AGL
  • Light Rain
  • Fog
Probable  (Probability 30%) Jul-19 @ 05:00 to Jul-19 @ 07:00
PROB30 1905/1907 1/2SM FG VV002
Visibility Clouds Conditions
1/2 miles
  • Vertical visibility at 200' AGL
  • Fog
From Jul-19 @ 05:00 to Jul-19 @ 07:00
FM190500 22010KT 6SM BR FEW002
Wind Visibility Clouds Conditions
220° at 10 knots 6 miles
  • Few at 200' AGL
  • Mist
From Jul-19 @ 07:00 to Jul-19 @ 13:00
FM190700 24005KT P6SM SKC
Wind Visibility Clouds
240° at 5 knots Greater than 6 miles
  • Clear skies
Becoming Jul-19 @ 13:00 to Jul-19 @ 18:00
BECMG 1913/1915 26010KT RMK NXT FCST BY 190000Z
Wind Visibility Clouds
260° at 10 knots Greater than 6 miles
  • Clear skies
TAF CYJT 181738Z 1818/1918 20015G25KT 6SM -SHRA BR OVC025 TEMPO 1818/1901 5SM -SHRA BR OVC020 FM190100 22010KT 1/2SM -SHRA FG VV002 TEMPO 1901/1905 6SM BR FEW002 FM190500 22010KT 6SM BR FEW002 PROB30 1905/1907 1/2SM FG VV002 FM190700 24005KT P6SM SKC BECMG 1913/1915 26010KT RMK NXT FCST BY 190000Z
Issued Jul-18 @ 17:38 UTC
(5 hours ago)
Valid From Jul-18 @ 18:00 UTC
(5 hours ago)
Valid To Jul-19 @ 18:00 UTC
(in 19 hours)
Jul-18 @ 18:00 - Jul-19 @ 01:00
Wind Visibility
200° at 15 knots
 Gusting to 25 knots
6 miles
Clouds
  • Overcast at 2,500' AGL
Conditions
  • Light Rain
  • Mist
Temporary Jul-18 @ 18:00 - Jul-19 @ 01:00
Clouds
  • Overcast at 2,000' AGL
Conditions
  • Light Rain
  • Mist
Temporary Jul-19 @ 01:00 - Jul-19 @ 05:00
Clouds
  • Few at 200' AGL
Conditions
  • Mist
From Jul-19 @ 01:00 - Jul-19 @ 05:00
Wind Visibility
220° at 10 knots 1/2 miles
Clouds
  • Vertical visibility at 200' AGL
Conditions
  • Light Rain
  • Fog
Probability 30% Probable Jul-19 @ 05:00 - Jul-19 @ 07:00
Clouds
  • Vertical visibility at 200' AGL
Conditions
  • Fog
From Jul-19 @ 05:00 - Jul-19 @ 07:00
Wind Visibility
220° at 10 knots 6 miles
Clouds
  • Few at 200' AGL
Conditions
  • Mist
From Jul-19 @ 07:00 - Jul-19 @ 13:00
Wind Visibility
240° at 5 knots Greater than 6 miles
Clouds
  • Clear skies
Becoming Jul-19 @ 13:00 - Jul-19 @ 18:00
Wind Visibility
260° at 10 knots Greater than 6 miles
Clouds
  • Clear skies